Time;durP1;ratioP1;P1;durP2;ratioP2;P2;SDS_P1;SDS_P2;PMS_P1;PMS_P2;Temp;Humidity;BMP_temperature;BMP_pressure;BME280_temperature;BME280_humidity;BME280_pressure;Samples;Min_cycle;Max_cycle;Signal;HPM_P1;HPM_P2
2023/07/14 00:01:46;;;;;;;1.83;1.13;;;19.90;92.60;;;;;;5000442;28;20257;-64
2023/07/14 00:04:22;;;;;;;2.22;1.30;;;19.90;92.70;;;;;;5017031;28;20522;-65
2023/07/14 00:06:49;;;;;;;2.85;1.33;;;19.90;93.30;;;;;;4995305;28;20178;-66
2023/07/14 00:09:29;;;;;;;2.40;1.20;;;19.90;92.80;;;;;;5000088;28;20183;-63
2023/07/14 00:11:55;;;;;;;3.65;1.20;;;19.90;93.40;;;;;;5015285;28;21635;-66
2023/07/14 00:14:21;;;;;;;2.05;1.20;;;19.90;92.90;;;;;;5006124;28;20202;-73
2023/07/14 00:16:47;;;;;;;1.17;1.00;;;19.90;93.00;;;;;;5019664;28;20202;-68
2023/07/14 00:19:18;;;;;;;2.95;1.27;;;19.90;93.00;;;;;;5000746;28;20186;-74
2023/07/14 00:21:45;;;;;;;2.05;1.13;;;19.90;93.20;;;;;;5010198;28;20183;-73
2023/07/14 00:24:14;;;;;;;2.00;1.20;;;19.90;93.10;;;;;;5004943;28;20245;-70
2023/07/14 00:26:41;;;;;;;2.40;1.10;;;19.90;93.30;;;;;;5014907;28;20243;-72
2023/07/14 00:29:31;;;;;;;2.28;1.15;;;19.90;93.20;;;;;;5016130;28;20209;-73
2023/07/14 00:31:59;;;;;;;1.73;1.00;;;19.90;94.00;;;;;;5007319;28;20285;-74
2023/07/14 00:34:28;;;;;;;2.25;1.05;;;19.90;93.20;;;;;;4997097;28;20258;-74
2023/07/14 00:36:53;;;;;;;2.17;1.27;;;19.80;93.40;;;;;;4999740;28;20209;-73
2023/07/14 00:39:21;;;;;;;1.55;1.05;;;19.80;93.40;;;;;;4998380;28;20204;-73
2023/07/14 00:41:47;;;;;;;1.80;1.08;;;19.80;93.50;;;;;;4996725;28;20273;-74
2023/07/14 00:44:17;;;;;;;1.58;1.38;;;19.80;93.50;;;;;;4997012;28;20170;-71
2023/07/14 00:46:45;;;;;;;2.50;1.10;;;19.80;93.60;;;;;;4996518;28;20281;-74
2023/07/14 00:49:35;;;;;;;2.45;1.10;;;19.80;93.70;;;;;;4999988;28;20200;-74
2023/07/14 00:52:18;;;;;;;1.77;1.20;;;19.80;94.00;;;;;;4985924;28;20253;-73
2023/07/14 00:54:51;;;;;;;4.00;1.20;;;19.80;94.20;;;;;;4999044;28;20262;-72
2023/07/14 00:57:24;;;;;;;2.10;1.08;;;19.80;94.00;;;;;;5000020;28;20198;-73
2023/07/14 00:59:53;;;;;;;2.05;1.27;;;19.70;93.80;;;;;;5000484;28;20419;-66
2023/07/14 01:02:23;;;;;;;3.60;1.13;;;19.80;93.80;;;;;;4997073;28;20258;-73
2023/07/14 01:05:05;;;;;;;1.55;1.10;;;19.70;94.20;;;;;;5007851;28;20186;-73
2023/07/14 01:07:38;;;;;;;1.52;1.20;;;19.70;94.50;;;;;;5002731;28;20193;-72
2023/07/14 01:10:09;;;;;;;3.38;1.17;;;19.70;94.40;;;;;;4999399;28;20277;-69
2023/07/14 01:12:41;;;;;;;2.63;1.20;;;19.70;94.40;;;;;;5012425;28;20186;-74
2023/07/14 01:15:10;;;;;;;1.98;1.00;;;19.70;94.20;;;;;;5001379;28;20270;-74
2023/07/14 01:17:37;;;;;;;1.70;1.17;;;19.70;94.20;;;;;;4998085;28;20206;-72
2023/07/14 01:20:08;;;;;;;3.75;1.08;;;19.70;94.20;;;;;;5004782;28;20188;-74
2023/07/14 01:22:59;;;;;;;2.38;1.10;;;19.70;94.30;;;;;;5004876;28;20214;-73
2023/07/14 01:25:33;;;;;;;4.13;1.00;;;19.70;94.60;;;;;;5009400;28;20194;-73
2023/07/14 01:28:07;;;;;;;3.95;1.00;;;19.60;94.30;;;;;;5011111;28;20185;-74
2023/07/14 01:30:33;;;;;;;1.73;1.10;;;19.60;94.40;;;;;;4999252;28;20229;-72
2023/07/14 01:32:58;;;;;;;2.05;1.30;;;19.60;94.30;;;;;;4998957;28;20336;-74
2023/07/14 01:35:30;;;;;;;2.00;1.05;;;19.60;94.40;;;;;;5012943;28;20194;-74
2023/07/14 01:37:59;;;;;;;2.47;1.15;;;19.60;94.60;;;;;;5005829;28;20263;-74
2023/07/14 01:40:26;;;;;;;1.48;1.00;;;19.50;94.30;;;;;;5006917;28;20178;-75
2023/07/14 01:42:56;;;;;;;1.67;1.00;;;19.50;94.70;;;;;;5006280;28;20197;-74
2023/07/14 01:45:30;;;;;;;2.03;1.30;;;19.40;94.60;;;;;;5004264;28;20191;-74
2023/07/14 01:48:00;;;;;;;1.55;0.95;;;19.40;94.70;;;;;;5005585;28;20202;-71
2023/07/14 01:50:30;;;;;;;1.77;1.23;;;19.30;94.80;;;;;;4997759;28;20304;-73
2023/07/14 01:53:09;;;;;;;2.13;1.20;;;19.30;94.60;;;;;;5001369;28;20289;-74
2023/07/14 01:55:38;;;;;;;2.78;1.17;;;19.30;94.80;;;;;;4988206;28;20273;-73
2023/07/14 01:58:12;;;;;;;2.35;1.27;;;19.20;94.70;;;;;;5000541;28;20171;-74
2023/07/14 02:00:41;;;;;;;2.67;1.05;;;19.20;95.30;;;;;;5002246;28;20229;-73
2023/07/14 02:03:11;;;;;;;1.92;1.20;;;19.10;94.70;;;;;;4998947;28;20262;-74
2023/07/14 02:05:40;;;;;;;3.15;1.00;;;19.10;94.80;;;;;;5001496;28;20178;-64
2023/07/14 02:08:13;;;;;;;2.67;1.20;;;19.10;94.90;;;;;;5019390;28;20214;-64
2023/07/14 02:10:39;;;;;;;2.28;1.10;;;19.00;95.70;;;;;;5026336;28;20166;-57
2023/07/14 02:13:05;;;;;;;1.42;1.10;;;19.00;95.20;;;;;;5021659;28;20190;-60
2023/07/14 02:15:33;;;;;;;2.05;1.15;;;19.00;95.30;;;;;;5037740;28;20188;-62
2023/07/14 02:18:02;;;;;;;2.65;1.00;;;19.00;95.50;;;;;;5024792;28;20187;-74
2023/07/14 02:20:38;;;;;;;1.80;1.10;;;18.90;95.70;;;;;;5020725;28;20264;-73
2023/07/14 02:23:08;;;;;;;1.67;1.10;;;18.90;95.90;;;;;;4999127;28;20178;-74
2023/07/14 02:25:41;;;;;;;2.97;1.30;;;18.90;95.80;;;;;;4999377;28;20179;-75
2023/07/14 02:28:09;;;;;;;3.13;1.08;;;18.90;96.10;;;;;;4998819;28;20159;-74
2023/07/14 02:30:37;;;;;;;1.70;1.05;;;18.80;95.80;;;;;;4998520;28;20272;-73
2023/07/14 02:33:13;;;;;;;2.15;1.00;;;18.80;95.90;;;;;;4997446;28;20205;-73
2023/07/14 02:35:44;;;;;;;3.03;1.00;;;18.80;96.30;;;;;;4998077;28;20202;-74
2023/07/14 02:38:16;;;;;;;1.83;1.20;;;18.70;96.20;;;;;;5015944;28;20170;-70
2023/07/14 02:40:50;;;;;;;3.03;1.35;;;18.70;96.60;;;;;;5009725;28;20179;-73
2023/07/14 02:43:18;;;;;;;1.42;1.30;;;18.70;96.60;;;;;;4998082;28;20191;-72
2023/07/14 02:46:01;;;;;;;1.50;1.08;;;18.70;96.30;;;;;;4998077;28;20179;-74
2023/07/14 02:48:42;;;;;;;1.85;1.25;;;18.70;96.90;;;;;;5009811;28;20193;-73
2023/07/14 02:51:08;;;;;;;2.40;1.10;;;18.70;96.90;;;;;;5010951;28;20245;-73
2023/07/14 02:53:34;;;;;;;1.33;1.10;;;18.70;96.30;;;;;;4997689;28;20171;-71
2023/07/14 02:56:00;;;;;;;2.00;1.10;;;18.60;96.40;;;;;;5006032;28;20288;-72
2023/07/14 02:58:26;;;;;;;1.13;1.02;;;18.60;96.40;;;;;;5007512;28;20173;-74
2023/07/14 03:00:55;;;;;;;3.08;1.13;;;18.60;96.50;;;;;;5006279;28;20193;-72
2023/07/14 03:03:24;;;;;;;1.98;1.35;;;18.70;96.60;;;;;;4999020;28;20226;-74
2023/07/14 03:05:51;;;;;;;1.23;0.98;;;18.60;96.60;;;;;;4986411;28;20262;-74
2023/07/14 03:08:17;;;;;;;1.88;1.17;;;18.50;96.70;;;;;;5013882;28;20181;-70
2023/07/14 03:10:46;;;;;;;1.70;1.10;;;18.50;96.70;;;;;;4997643;28;20245;-73
2023/07/14 03:13:16;;;;;;;1.98;1.05;;;18.50;96.90;;;;;;4998289;28;20202;-73
2023/07/14 03:15:43;;;;;;;2.28;0.98;;;18.50;97.10;;;;;;4994678;28;20214;-72
2023/07/14 03:18:10;;;;;;;1.42;1.10;;;18.50;96.90;;;;;;4996202;28;20179;-72
2023/07/14 03:20:37;;;;;;;2.15;1.20;;;18.50;97.20;;;;;;4998959;28;20199;-72
2023/07/14 03:23:04;;;;;;;2.92;1.40;;;18.50;97.00;;;;;;4997295;28;20203;-70
2023/07/14 03:25:29;;;;;;;2.33;1.20;;;18.50;97.10;;;;;;5009829;28;20182;-70
2023/07/14 03:27:55;;;;;;;1.88;1.13;;;18.40;97.10;;;;;;4997493;28;20258;-72
2023/07/14 03:30:23;;;;;;;3.03;1.52;;;18.40;97.20;;;;;;4997629;28;20270;-73
2023/07/14 03:32:51;;;;;;;1.95;1.67;;;18.40;97.50;;;;;;5010594;28;20186;-74
2023/07/14 03:35:19;;;;;;;2.72;1.90;;;18.40;97.60;;;;;;4997139;28;20242;-74
2023/07/14 03:37:48;;;;;;;2.28;1.65;;;18.40;97.50;;;;;;5022545;28;20227;-73
2023/07/14 03:40:15;;;;;;;1.92;1.67;;;18.30;97.80;;;;;;4997495;28;20233;-73
2023/07/14 03:42:43;;;;;;;1.95;1.48;;;18.30;97.60;;;;;;5012507;28;20263;-72
2023/07/14 03:45:09;;;;;;;2.13;1.60;;;18.30;97.70;;;;;;5003275;28;20257;-73
2023/07/14 03:47:39;;;;;;;1.73;1.30;;;18.30;97.70;;;;;;5008143;28;20253;-73
2023/07/14 03:50:08;;;;;;;1.80;1.50;;;18.20;98.00;;;;;;5001902;28;20195;-73
2023/07/14 03:52:33;;;;;;;2.10;1.80;;;18.20;97.90;;;;;;5006831;28;20179;-73
2023/07/14 03:54:59;;;;;;;1.58;1.30;;;18.20;98.00;;;;;;5021008;28;20221;-73
2023/07/14 03:57:27;;;;;;;1.83;1.40;;;18.20;98.20;;;;;;5000548;28;20208;-74
2023/07/14 03:59:53;;;;;;;2.05;1.35;;;18.20;98.50;;;;;;5001158;28;20174;-73
2023/07/14 04:02:19;;;;;;;2.10;1.75;;;18.10;98.60;;;;;;5017043;28;20213;-72
2023/07/14 04:04:45;;;;;;;2.47;1.42;;;18.20;98.70;;;;;;5017437;28;20170;-71
2023/07/14 04:07:11;;;;;;;4.03;1.55;;;18.10;98.80;;;;;;5005693;28;20277;-73
2023/07/14 04:09:39;;;;;;;2.53;1.35;;;18.10;98.90;;;;;;5004372;28;20202;-73
2023/07/14 04:12:08;;;;;;;3.50;1.50;;;18.10;99.10;;;;;;5006289;28;20174;-72
2023/07/14 04:14:35;;;;;;;2.95;1.58;;;18.10;99.30;;;;;;5020394;28;20205;-72
2023/07/14 04:17:02;;;;;;;2.03;1.20;;;18.10;99.60;;;;;;5014528;28;20202;-72
2023/07/14 04:19:28;;;;;;;2.38;1.48;;;18.10;99.90;;;;;;4997094;28;20179;-74
2023/07/14 04:21:54;;;;;;;1.83;1.30;;;18.10;99.90;;;;;;4984197;28;20182;-73
2023/07/14 04:24:22;;;;;;;1.65;1.30;;;18.10;99.90;;;;;;5013236;28;20217;-73
2023/07/14 04:26:48;;;;;;;2.20;1.23;;;18.10;99.90;;;;;;5006434;28;20213;-72
2023/07/14 04:29:14;;;;;;;2.53;1.40;;;18.10;99.90;;;;;;5016292;28;20175;-72
2023/07/14 04:31:42;;;;;;;2.35;1.60;;;18.10;99.90;;;;;;5024647;28;20406;-68
2023/07/14 04:34:07;;;;;;;2.63;1.35;;;18.20;99.90;;;;;;5016238;28;20174;-73
2023/07/14 04:36:38;;;;;;;3.08;1.80;;;18.20;99.90;;;;;;5000093;28;20209;-73
2023/07/14 04:39:09;;;;;;;4.25;1.80;;;18.20;99.90;;;;;;4984094;28;20167;-74
2023/07/14 04:41:38;;;;;;;3.70;2.00;;;18.30;99.90;;;;;;4995336;28;20175;-73
2023/07/14 04:44:09;;;;;;;2.35;1.60;;;18.30;99.90;;;;;;4999233;28;20202;-70
2023/07/14 04:46:36;;;;;;;3.45;1.33;;;18.30;99.90;;;;;;4999853;28;20522;-70
2023/07/14 04:49:02;;;;;;;2.15;1.45;;;18.30;99.90;;;;;;4999749;28;20277;-74
2023/07/14 04:51:28;;;;;;;2.75;1.40;;;18.40;99.90;;;;;;4999697;28;20277;-73
2023/07/14 04:53:55;;;;;;;2.00;1.48;;;18.40;99.90;;;;;;4996817;28;20183;-73
2023/07/14 04:56:24;;;;;;;2.78;1.40;;;18.40;99.90;;;;;;4999908;28;20215;-70
2023/07/14 04:58:50;;;;;;;2.92;1.50;;;18.40;99.90;;;;;;5004295;28;20273;-71
2023/07/14 05:01:20;;;;;;;2.60;1.40;;;18.50;99.90;;;;;;5016199;28;20221;-71
2023/07/14 05:03:46;;;;;;;2.35;1.40;;;18.50;99.90;;;;;;5019460;28;20217;-73
2023/07/14 05:06:14;;;;;;;4.32;1.70;;;18.50;99.90;;;;;;5010332;28;20213;-73
2023/07/14 05:08:40;;;;;;;2.55;1.40;;;18.60;99.90;;;;;;5020452;28;20191;-71
2023/07/14 05:11:06;;;;;;;4.47;1.40;;;18.60;99.90;;;;;;5003809;28;20252;-68
2023/07/14 05:13:35;;;;;;;2.03;1.23;;;18.70;99.90;;;;;;4998941;28;20182;-72
2023/07/14 05:16:02;;;;;;;1.95;1.20;;;18.70;99.90;;;;;;4999209;28;20202;-73
2023/07/14 05:18:30;;;;;;;1.92;1.40;;;18.80;99.90;;;;;;5016232;28;20199;-73
2023/07/14 05:21:01;;;;;;;2.22;1.48;;;18.80;99.90;;;;;;5035619;28;20174;-73
2023/07/14 05:23:27;;;;;;;1.58;1.33;;;18.90;99.90;;;;;;5005510;28;20177;-73
2023/07/14 05:25:55;;;;;;;1.65;1.20;;;18.90;99.90;;;;;;5018892;28;20201;-72
2023/07/14 05:28:22;;;;;;;1.60;1.30;;;19.00;99.90;;;;;;5004138;28;20262;-73
2023/07/14 05:30:49;;;;;;;4.25;1.50;;;19.10;99.90;;;;;;5015405;28;20339;-70
2023/07/14 05:33:16;;;;;;;3.50;1.45;;;19.20;99.90;;;;;;4999893;28;20195;-71
2023/07/14 05:35:43;;;;;;;2.88;1.42;;;19.20;99.90;;;;;;4996591;28;20186;-71
2023/07/14 05:38:08;;;;;;;2.58;1.30;;;19.30;99.90;;;;;;5002834;28;20219;-73
2023/07/14 05:40:36;;;;;;;3.30;1.27;;;19.40;99.90;;;;;;4999043;28;20293;-73
2023/07/14 05:43:04;;;;;;;2.22;1.40;;;19.40;99.90;;;;;;5016961;28;20171;-73
2023/07/14 05:45:34;;;;;;;2.60;1.40;;;19.50;99.90;;;;;;5005875;28;20182;-73
2023/07/14 05:48:02;;;;;;;2.63;1.60;;;19.50;99.90;;;;;;5014971;28;20289;-72
2023/07/14 05:50:30;;;;;;;3.33;1.13;;;19.60;99.90;;;;;;4998341;28;20186;-73
2023/07/14 05:52:58;;;;;;;2.75;1.50;;;19.60;99.90;;;;;;5007638;28;20170;-73
2023/07/14 05:55:28;;;;;;;1.75;1.30;;;19.70;99.90;;;;;;5007485;28;20212;-73
2023/07/14 05:57:54;;;;;;;2.30;1.35;;;19.70;99.90;;;;;;5017044;28;20189;-73
2023/07/14 06:00:22;;;;;;;1.92;1.52;;;19.70;99.90;;;;;;5014901;28;20239;-72
2023/07/14 06:02:50;;;;;;;2.75;1.50;;;19.70;99.90;;;;;;4998110;28;20198;-73
2023/07/14 06:05:19;;;;;;;2.50;1.50;;;19.70;99.90;;;;;;4998624;28;20249;-72
2023/07/14 06:07:45;;;;;;;4.15;1.55;;;19.80;99.90;;;;;;4998787;28;20179;-73
2023/07/14 06:10:12;;;;;;;4.10;1.50;;;19.80;99.90;;;;;;5007341;28;20194;-72
2023/07/14 06:12:40;;;;;;;2.55;1.40;;;19.80;99.90;;;;;;5018315;28;20320;-72
2023/07/14 06:15:06;;;;;;;2.47;1.35;;;19.80;99.90;;;;;;5010431;28;20185;-72
2023/07/14 06:17:32;;;;;;;3.42;1.50;;;19.90;99.90;;;;;;5013838;28;20215;-73
2023/07/14 06:19:57;;;;;;;2.58;1.52;;;19.90;99.90;;;;;;4998549;28;20183;-73
2023/07/14 06:22:26;;;;;;;4.05;1.65;;;19.90;99.90;;;;;;4997870;28;20183;-74
2023/07/14 06:24:51;;;;;;;6.20;1.80;;;20.00;99.90;;;;;;5002836;28;20200;-73
2023/07/14 06:27:17;;;;;;;2.38;1.40;;;20.00;99.90;;;;;;5018148;28;20178;-73
2023/07/14 06:29:45;;;;;;;2.58;1.38;;;20.10;99.90;;;;;;5012472;28;20198;-73
2023/07/14 06:32:12;;;;;;;3.53;1.60;;;20.20;99.90;;;;;;5012605;28;20206;-69
2023/07/14 06:34:37;;;;;;;3.22;1.60;;;20.20;99.90;;;;;;4990177;28;20182;-72
2023/07/14 06:37:06;;;;;;;2.70;1.52;;;20.30;99.90;;;;;;4994691;28;20425;-72
2023/07/14 06:39:32;;;;;;;2.47;1.50;;;20.30;99.90;;;;;;4994972;28;20253;-73
2023/07/14 06:41:58;;;;;;;2.60;1.55;;;20.40;99.90;;;;;;4998386;28;20171;-73
2023/07/14 06:44:23;;;;;;;3.47;1.50;;;20.50;99.90;;;;;;5015089;28;20174;-71
2023/07/14 06:46:51;;;;;;;2.60;1.65;;;20.60;99.90;;;;;;5001812;28;20197;-72
2023/07/14 06:49:24;;;;;;;2.45;1.45;;;20.70;99.90;;;;;;5301709;23;20283;-72
2023/07/14 06:51:50;;;;;;;2.65;1.45;;;20.70;99.90;;;;;;5015123;28;20296;-71
2023/07/14 06:54:16;;;;;;;3.80;1.48;;;20.80;99.90;;;;;;5017624;28;20304;-70
2023/07/14 06:56:41;;;;;;;2.17;1.55;;;20.90;99.90;;;;;;5017550;28;20198;-72
2023/07/14 06:59:07;;;;;;;1.95;1.40;;;20.90;99.90;;;;;;5011650;28;20434;-70
2023/07/14 07:01:33;;;;;;;3.47;1.50;;;21.00;99.90;;;;;;5015385;28;20174;-71
2023/07/14 07:04:01;;;;;;;3.13;1.60;;;21.00;99.90;;;;;;5017115;28;20170;-71
2023/07/14 07:06:27;;;;;;;1.73;1.50;;;21.10;99.90;;;;;;5017489;28;20173;-72
2023/07/14 07:08:52;;;;;;;2.08;1.25;;;21.20;99.90;;;;;;5016921;28;20192;-73
2023/07/14 07:11:18;;;;;;;3.38;1.45;;;21.30;99.90;;;;;;5017573;28;20166;-72
2023/07/14 07:13:44;;;;;;;3.00;1.25;;;21.30;99.90;;;;;;5017501;28;20170;-69
2023/07/14 07:16:09;;;;;;;2.17;1.40;;;21.40;99.90;;;;;;5017524;28;20209;-71
2023/07/14 07:18:37;;;;;;;2.53;1.50;;;21.50;99.90;;;;;;5014199;28;20236;-72
2023/07/14 07:21:07;;;;;;;2.90;1.67;;;21.50;99.90;;;;;;5024037;28;20224;-70
2023/07/14 07:23:33;;;;;;;2.58;1.30;;;21.60;99.90;;;;;;5021337;28;20205;-67
2023/07/14 07:25:59;;;;;;;1.65;1.20;;;21.70;99.90;;;;;;5029116;28;20166;-71
2023/07/14 07:28:24;;;;;;;3.53;1.50;;;21.80;99.90;;;;;;5020352;28;20209;-73
2023/07/14 07:30:50;;;;;;;2.53;1.48;;;21.80;99.90;;;;;;5021345;28;20370;-72
2023/07/14 07:33:16;;;;;;;2.58;1.20;;;21.90;99.90;;;;;;5021072;28;20167;-72
2023/07/14 07:35:42;;;;;;;1.90;1.23;;;21.90;99.90;;;;;;5021225;28;20174;-72
2023/07/14 07:38:10;;;;;;;2.65;1.35;;;22.00;99.90;;;;;;5020750;28;20176;-72
2023/07/14 07:40:40;;;;;;;2.50;0.98;;;22.10;99.90;;;;;;5018038;28;20178;-70
2023/07/14 07:43:08;;;;;;;1.88;1.17;;;22.10;99.90;;;;;;5035340;28;20170;-72
2023/07/14 07:45:37;;;;;;;2.00;1.25;;;22.20;99.90;;;;;;5020616;28;20208;-73
2023/07/14 07:48:08;;;;;;;2.65;1.45;;;22.20;99.90;;;;;;5020471;28;20277;-71
2023/07/14 07:50:36;;;;;;;2.50;1.30;;;22.30;99.90;;;;;;5012745;28;20289;-72
2023/07/14 07:53:04;;;;;;;2.05;1.40;;;22.40;99.90;;;;;;5006121;28;20265;-70
2023/07/14 07:55:32;;;;;;;3.28;1.30;;;22.50;99.90;;;;;;5017526;28;20186;-72
2023/07/14 07:57:57;;;;;;;1.60;1.20;;;22.60;99.90;;;;;;5030773;28;20194;-73
2023/07/14 08:00:25;;;;;;;3.33;1.20;;;22.70;99.90;;;;;;5016523;28;20269;-72
2023/07/14 08:02:51;;;;;;;1.60;1.15;;;22.80;99.90;;;;;;5016467;28;20243;-72
2023/07/14 08:05:21;;;;;;;3.15;1.73;;;22.90;99.90;;;;;;5020553;28;20174;-72
2023/07/14 08:07:49;;;;;;;2.10;1.30;;;23.00;99.90;;;;;;5037699;28;20174;-71
2023/07/14 08:10:14;;;;;;;2.08;1.23;;;23.10;99.90;;;;;;5020334;28;20174;-72
2023/07/14 08:12:40;;;;;;;1.95;1.05;;;23.20;99.90;;;;;;5020077;28;20178;-72
2023/07/14 08:15:10;;;;;;;1.70;1.23;;;23.30;99.90;;;;;;5020650;28;20265;-71
2023/07/14 08:17:53;;;;;;;3.38;1.30;;;23.40;99.90;;;;;;5021087;28;20198;-71
2023/07/14 08:20:18;;;;;;;1.83;1.20;;;23.60;99.30;;;;;;5021392;28;20170;-70
2023/07/14 08:22:46;;;;;;;2.63;1.30;;;23.70;99.90;;;;;;5038097;28;20209;-64
2023/07/14 08:25:12;;;;;;;1.63;1.20;;;23.80;99.90;;;;;;5020172;28;20186;-64
2023/07/14 08:27:40;;;;;;;1.42;1.02;;;24.00;99.80;;;;;;5019727;28;20265;-64
2023/07/14 08:30:08;;;;;;;1.90;1.20;;;24.10;99.70;;;;;;5019514;28;20222;-65
2023/07/14 08:32:34;;;;;;;3.35;1.20;;;24.20;99.40;;;;;;5018855;28;20421;-65
2023/07/14 08:35:02;;;;;;;1.90;1.10;;;24.30;99.30;;;;;;5020076;28;20177;-67
2023/07/14 08:37:28;;;;;;;3.38;1.40;;;24.40;99.10;;;;;;5019063;28;20213;-65
2023/07/14 08:39:54;;;;;;;2.13;1.30;;;24.50;98.90;;;;;;5016180;28;20182;-62
2023/07/14 08:43:03;;;;;;;2.45;1.50;;;24.50;98.70;;;;;;5036441;28;20169;-65
2023/07/14 08:46:10;;;;;;;3.17;1.30;;;24.60;97.70;;;;;;5016889;28;20272;-65
2023/07/14 08:48:39;;;;;;;2.03;1.30;;;24.70;97.30;;;;;;5009723;28;20193;-65
2023/07/14 08:51:25;;;;;;;2.13;1.23;;;24.80;98.10;;;;;;5016622;28;20294;-65
2023/07/14 08:54:07;;;;;;;1.42;1.02;;;24.90;96.40;;;;;;5013710;28;20298;-65
2023/07/14 08:56:37;;;;;;;3.85;1.38;;;24.90;96.40;;;;;;5019295;28;20229;-65
2023/07/14 08:59:13;;;;;;;2.55;1.30;;;25.00;97.30;;;;;;5018866;28;20185;-65
2023/07/14 09:01:52;;;;;;;1.80;1.05;;;25.00;97.10;;;;;;5015911;28;20194;-62
2023/07/14 09:04:32;;;;;;;2.10;1.20;;;25.10;96.90;;;;;;5014297;28;20179;-65
2023/07/14 09:07:00;;;;;;;2.55;1.30;;;25.20;96.80;;;;;;5018273;28;20407;-65
2023/07/14 09:09:34;;;;;;;2.13;1.25;;;25.20;97.10;;;;;;5019023;28;20185;-63
2023/07/14 09:12:06;;;;;;;2.03;1.20;;;25.30;95.90;;;;;;5018403;28;20196;-65
2023/07/14 09:14:48;;;;;;;1.80;1.30;;;25.40;95.60;;;;;;5035171;28;20182;-65
2023/07/14 09:17:36;;;;;;;2.78;1.50;;;25.50;95.40;;;;;;5012105;28;20210;-64
2023/07/14 09:20:20;;;;;;;1.92;1.25;;;25.50;94.80;;;;;;5014780;28;20182;-62
2023/07/14 09:23:07;;;;;;;1.33;1.10;;;25.50;95.20;;;;;;5044158;28;20292;-65
2023/07/14 09:25:42;;;;;;;2.08;1.20;;;25.60;94.80;;;;;;5038869;28;20243;-64
2023/07/14 09:28:20;;;;;;;1.75;1.20;;;25.70;94.40;;;;;;5038711;28;20172;-65
2023/07/14 09:30:50;;;;;;;4.40;1.45;;;25.80;92.40;;;;;;5021685;28;20205;-65
2023/07/14 09:33:20;;;;;;;3.45;1.55;;;25.90;93.20;;;;;;5018974;28;20178;-65
2023/07/14 09:35:50;;;;;;;1.70;1.40;;;26.00;92.80;;;;;;5036482;28;20166;-65
2023/07/14 09:38:26;;;;;;;1.80;1.23;;;26.00;92.60;;;;;;5034974;28;20208;-65
2023/07/14 09:41:01;;;;;;;2.28;1.40;;;26.00;92.40;;;;;;5018928;28;20177;-63
2023/07/14 09:43:27;;;;;;;2.08;1.27;;;26.10;92.80;;;;;;5018516;28;20260;-65
2023/07/14 09:45:58;;;;;;;2.08;1.40;;;26.10;93.00;;;;;;5014996;28;20293;-64
2023/07/14 09:48:31;;;;;;;2.13;1.20;;;26.20;93.20;;;;;;5027583;28;20228;-65
2023/07/14 09:51:04;;;;;;;1.70;1.27;;;26.30;93.00;;;;;;5018619;28;20169;-65
2023/07/14 09:53:39;;;;;;;3.22;1.52;;;26.40;92.40;;;;;;5009013;28;20210;-64
2023/07/14 09:56:16;;;;;;;1.58;1.40;;;26.50;92.60;;;;;;5012542;28;20166;-65
2023/07/14 09:58:52;;;;;;;1.95;1.33;;;26.50;92.00;;;;;;5018434;28;20180;-65
2023/07/14 10:01:20;;;;;;;2.75;1.67;;;26.60;92.10;;;;;;5017706;28;20205;-66
2023/07/14 10:03:58;;;;;;;1.92;1.48;;;26.60;92.00;;;;;;5018415;28;20177;-64
2023/07/14 10:06:29;;;;;;;2.42;1.55;;;26.70;91.40;;;;;;5018207;28;20188;-64
2023/07/14 10:08:56;;;;;;;2.17;1.35;;;26.70;91.60;;;;;;5018309;28;20170;-66
2023/07/14 10:11:28;;;;;;;2.25;1.45;;;26.70;91.30;;;;;;5034720;28;20178;-63
2023/07/14 10:14:03;;;;;;;2.63;1.92;;;26.70;90.60;;;;;;5034565;28;20277;-65
2023/07/14 10:16:32;;;;;;;3.97;1.65;;;26.70;90.20;;;;;;5006109;28;20209;-67
2023/07/14 10:18:58;;;;;;;2.63;1.48;;;26.80;90.50;;;;;;5024254;28;20223;-65
2023/07/14 10:21:29;;;;;;;2.75;1.60;;;26.80;89.80;;;;;;5034629;28;20193;-64
2023/07/14 10:24:05;;;;;;;5.57;1.70;;;26.80;88.80;;;;;;5035045;28;20166;-65
2023/07/14 10:26:42;;;;;;;2.78;1.50;;;26.90;89.40;;;;;;5034435;28;20178;-65
2023/07/14 10:29:21;;;;;;;2.85;1.65;;;26.90;89.10;;;;;;5024945;28;20173;-63
2023/07/14 10:31:54;;;;;;;2.42;1.60;;;27.00;87.50;;;;;;5014813;28;20175;-65
2023/07/14 10:34:40;;;;;;;3.28;1.48;;;27.00;88.30;;;;;;5000364;28;20330;-65
2023/07/14 10:37:24;;;;;;;2.42;1.30;;;27.10;87.60;;;;;;5017703;28;20225;-64
2023/07/14 10:39:58;;;;;;;2.85;1.42;;;27.10;87.00;;;;;;5017704;28;20174;-66
2023/07/14 10:42:31;;;;;;;2.95;1.65;;;27.20;87.40;;;;;;5017785;28;20169;-65
2023/07/14 10:44:58;;;;;;;2.50;1.50;;;27.20;87.00;;;;;;5011940;28;20235;-64
2023/07/14 10:47:48;;;;;;;1.85;1.25;;;27.30;87.00;;;;;;5017789;28;20178;-65
2023/07/14 10:50:32;;;;;;;3.50;1.70;;;27.40;83.60;;;;;;5017866;28;20288;-65
2023/07/14 10:53:18;;;;;;;2.13;1.48;;;27.40;83.70;;;;;;5014140;28;20285;-63
2023/07/14 10:55:48;;;;;;;3.13;1.45;;;27.50;84.80;;;;;;5017025;28;20162;-66
2023/07/14 10:58:17;;;;;;;1.98;1.40;;;27.50;85.10;;;;;;5017332;28;20280;-65
2023/07/14 11:00:50;;;;;;;2.95;1.45;;;27.60;84.20;;;;;;5016902;28;20178;-65
2023/07/14 11:03:16;;;;;;;2.40;1.45;;;27.60;84.20;;;;;;5016877;28;20184;-65
2023/07/14 11:05:51;;;;;;;2.15;1.50;;;27.70;84.90;;;;;;5029368;28;20463;-65
2023/07/14 11:08:19;;;;;;;3.80;1.40;;;27.80;84.40;;;;;;5015264;28;20314;-65
2023/07/14 11:10:53;;;;;;;2.50;1.50;;;27.90;84.50;;;;;;5016607;28;20197;-65
2023/07/14 11:14:04;;;;;;;2.95;1.88;;;28.00;84.50;;;;;;5017460;28;20174;-65
2023/07/14 11:16:54;;;;;;;2.35;1.38;;;28.20;79.50;;;;;;5014095;28;20263;-65
2023/07/14 11:19:51;;;;;;;2.60;1.70;;;28.30;81.90;;;;;;5004791;28;20251;-65
2023/07/14 11:22:33;;;;;;;2.47;1.48;;;28.50;82.10;;;;;;5020589;28;20201;-65
2023/07/14 11:25:18;;;;;;;2.28;1.60;;;28.70;81.70;;;;;;5033485;28;20230;-65
2023/07/14 11:28:00;;;;;;;2.40;1.60;;;28.80;80.50;;;;;;5016794;28;20182;-65
2023/07/14 11:30:36;;;;;;;1.60;1.40;;;28.90;78.90;;;;;;5033646;28;20186;-63
2023/07/14 11:33:52;;;;;;;4.07;1.58;;;28.90;78.70;;;;;;5016736;28;20185;-62
2023/07/14 11:36:23;;;;;;;3.25;1.60;;;29.00;79.10;;;;;;4955303;28;20212;-63
2023/07/14 11:38:57;;;;;;;2.08;1.40;;;29.20;79.60;;;;;;5019447;28;20177;-64
2023/07/14 11:41:24;;;;;;;3.22;1.50;;;29.50;77.30;;;;;;5015442;28;20181;-63
2023/07/14 11:43:56;;;;;;;1.90;1.30;;;29.60;78.10;;;;;;5017129;28;20233;-65
2023/07/14 11:46:25;;;;;;;3.75;1.50;;;29.70;75.80;;;;;;5014712;28;20205;-63
2023/07/14 11:48:54;;;;;;;1.85;1.27;;;29.70;75.80;;;;;;5000025;28;20212;-65
2023/07/14 11:51:41;;;;;;;3.28;1.58;;;29.70;75.50;;;;;;5030067;28;20206;-65
2023/07/14 11:54:20;;;;;;;2.70;1.67;;;29.80;74.90;;;;;;5010337;28;20200;-65
2023/07/14 11:57:03;;;;;;;2.38;1.60;;;30.00;71.80;;;;;;5014911;28;20197;-66
2023/07/14 11:59:33;;;;;;;2.33;1.40;;;30.00;69.90;;;;;;5016877;28;20205;-65
2023/07/14 12:02:29;;;;;;;2.47;1.60;;;30.10;70.10;;;;;;5017025;28;20177;-65
2023/07/14 12:05:19;;;;;;;1.70;1.58;;;30.10;68.20;;;;;;5016531;28;20177;-66
2023/07/14 12:08:07;;;;;;;2.10;1.42;;;30.10;66.70;;;;;;5019034;28;20270;-65
2023/07/14 12:10:41;;;;;;;1.83;1.40;;;30.10;60.60;;;;;;5022100;28;20196;-65
2023/07/14 12:13:22;;;;;;;2.85;1.45;;;30.20;65.10;;;;;;5037517;28;20194;-65
2023/07/14 12:16:18;;;;;;;4.00;1.40;;;30.20;60.50;;;;;;5013274;28;20304;-65
2023/07/14 12:19:27;;;;;;;3.15;1.30;;;30.20;63.40;;;;;;5020024;28;20177;-64
2023/07/14 12:22:02;;;;;;;2.00;1.10;;;30.30;58.80;;;;;;5012738;28;20216;-66
2023/07/14 12:24:32;;;;;;;2.35;1.20;;;30.30;62.20;;;;;;5019783;28;20232;-64
2023/07/14 12:27:27;;;;;;;2.67;1.30;;;30.30;62.20;;;;;;5016771;28;20212;-65
2023/07/14 12:30:05;;;;;;;2.15;1.20;;;30.30;60.50;;;;;;5001594;28;20178;-63
2023/07/14 12:32:35;;;;;;;2.03;1.40;;;30.30;61.70;;;;;;5014244;28;20212;-65
2023/07/14 12:35:01;;;;;;;2.33;1.27;;;30.30;61.30;;;;;;5022827;28;20205;-63
2023/07/14 12:37:33;;;;;;;2.72;1.67;;;30.30;61.80;;;;;;5022047;28;20205;-64
2023/07/14 12:40:03;;;;;;;2.05;1.23;;;30.30;60.20;;;;;;5019982;28;20185;-65
2023/07/14 12:42:29;;;;;;;2.97;1.38;;;30.20;59.90;;;;;;5019594;28;20181;-65
2023/07/14 12:44:59;;;;;;;1.42;1.08;;;30.10;59.80;;;;;;5019670;28;20180;-64
2023/07/14 12:47:25;;;;;;;2.95;1.10;;;30.00;60.10;;;;;;5001368;28;20500;-59
2023/07/14 12:49:55;;;;;;;1.88;1.25;;;30.00;60.50;;;;;;5135066;22;20281;-63
2023/07/14 12:52:30;;;;;;;1.40;1.13;;;30.00;60.80;;;;;;4980384;28;20223;-65
2023/07/14 12:55:09;;;;;;;2.40;1.10;;;30.00;60.50;;;;;;4979979;28;20185;-66
2023/07/14 12:57:37;;;;;;;1.85;1.17;;;30.10;60.40;;;;;;4979416;28;20210;-65
2023/07/14 13:00:27;;;;;;;1.30;1.00;;;30.10;60.40;;;;;;4984937;28;20163;-65
2023/07/14 13:02:54;;;;;;;1.65;1.00;;;30.10;59.00;;;;;;4980487;28;20159;-65
2023/07/14 13:05:20;;;;;;;2.17;1.10;;;30.20;60.60;;;;;;4980522;28;20198;-64
2023/07/14 13:07:52;;;;;;;3.25;1.40;;;30.20;60.70;;;;;;4986176;28;20182;-64
2023/07/14 13:10:24;;;;;;;2.40;1.30;;;30.20;60.70;;;;;;4999066;28;20202;-65